createdAt,value
2017-12-17T00:00:06.427Z,2.20
2017-12-17T00:02:35.414Z,2.30
2017-12-17T00:05:04.396Z,2.20
2017-12-17T00:07:32.497Z,2.30
2017-12-17T00:10:00.627Z,2.30
2017-12-17T00:12:28.708Z,2.30
2017-12-17T00:14:59.124Z,2.20
2017-12-17T00:17:27.195Z,2.20
2017-12-17T00:19:55.359Z,2.40
2017-12-17T00:22:23.441Z,2.30
2017-12-17T00:24:51.599Z,2.30
2017-12-17T00:27:19.690Z,2.20
2017-12-17T00:29:47.875Z,2.20
2017-12-17T00:32:17.677Z,2.00
2017-12-17T00:34:45.768Z,1.90
2017-12-17T00:37:13.885Z,1.80
2017-12-17T00:39:42.736Z,1.90
2017-12-17T00:42:11.612Z,1.90
2017-12-17T00:44:39.696Z,1.90
2017-12-17T00:47:08.603Z,2.00
2017-12-17T00:49:37.484Z,2.00
2017-12-17T00:52:06.360Z,2.10
2017-12-17T00:54:34.479Z,2.00
2017-12-17T00:57:02.592Z,2.00
2017-12-17T00:59:30.724Z,2.00
2017-12-17T01:01:58.832Z,1.90
2017-12-17T01:04:26.946Z,1.90
2017-12-17T01:06:55.048Z,1.90
2017-12-17T01:09:25.283Z,1.90
2017-12-17T01:11:53.400Z,2.00
2017-12-17T01:14:21.545Z,2.00
2017-12-17T01:19:42.631Z,2.00
2017-12-17T01:22:10.758Z,2.00
2017-12-17T01:24:38.949Z,2.10
2017-12-17T01:27:07.126Z,2.10
2017-12-17T01:29:35.223Z,2.10
2017-12-17T01:32:03.356Z,2.20
2017-12-17T01:34:31.477Z,2.10
2017-12-17T01:36:59.562Z,2.10
2017-12-17T01:39:27.820Z,2.20
2017-12-17T01:41:55.953Z,2.20
2017-12-17T01:44:24.037Z,2.20
2017-12-17T01:46:52.272Z,2.20
2017-12-17T01:49:20.388Z,2.20
2017-12-17T01:51:48.469Z,2.20
2017-12-17T01:57:07.756Z,2.20
2017-12-17T01:59:35.929Z,2.20
2017-12-17T02:02:04.081Z,2.20
2017-12-17T02:04:32.175Z,2.20
2017-12-17T02:07:00.293Z,2.10
2017-12-17T02:09:31.156Z,2.10
2017-12-17T02:11:59.256Z,2.10
2017-12-17T02:14:27.395Z,2.10
2017-12-17T02:16:55.525Z,2.10
2017-12-17T02:19:23.652Z,2.10
2017-12-17T02:21:51.822Z,2.10
2017-12-17T02:24:20.157Z,2.10
2017-12-17T02:26:48.316Z,2.10
2017-12-17T02:29:16.416Z,2.10
2017-12-17T02:31:44.533Z,2.10
2017-12-17T02:34:14.563Z,2.10
2017-12-17T02:36:43.521Z,2.10
2017-12-17T02:39:11.724Z,2.10
2017-12-17T02:41:40.640Z,2.10
2017-12-17T02:44:08.742Z,2.10
2017-12-17T02:46:36.891Z,2.10
2017-12-17T02:49:05.009Z,2.10
2017-12-17T02:51:33.268Z,2.10
2017-12-17T02:54:01.398Z,2.10
2017-12-17T02:56:29.606Z,2.10
2017-12-17T02:58:57.695Z,2.10
2017-12-17T03:01:25.845Z,2.10
2017-12-17T03:03:53.973Z,2.10
2017-12-17T03:06:22.186Z,2.10
2017-12-17T03:08:50.539Z,2.00
2017-12-17T03:11:19.389Z,2.00
2017-12-17T03:13:47.545Z,2.10
2017-12-17T03:16:15.637Z,2.10
2017-12-17T03:18:43.773Z,2.10
2017-12-17T03:21:11.877Z,2.10
2017-12-17T03:26:24.351Z,2.00
2017-12-17T03:28:52.638Z,2.10
2017-12-17T03:31:20.761Z,2.10
2017-12-17T03:33:48.997Z,2.10
2017-12-17T03:36:17.076Z,2.10
2017-12-17T03:38:46.090Z,2.10
2017-12-17T03:41:14.319Z,2.10
2017-12-17T03:43:43.201Z,2.10
2017-12-17T03:46:11.315Z,2.20
2017-12-17T03:48:39.424Z,2.10
2017-12-17T03:51:07.503Z,2.20
2017-12-17T03:53:35.640Z,2.20
2017-12-17T03:56:03.808Z,2.10
2017-12-17T03:58:31.919Z,2.20
2017-12-17T04:01:00.103Z,2.20
2017-12-17T04:03:29.034Z,2.20
2017-12-17T04:05:57.202Z,2.20
2017-12-17T04:08:30.624Z,2.10
2017-12-17T04:10:58.830Z,2.10
2017-12-17T04:13:27.836Z,2.00
2017-12-17T04:15:55.917Z,2.00
2017-12-17T04:18:24.033Z,1.80
2017-12-17T04:20:52.112Z,1.60
2017-12-17T04:23:20.255Z,1.70
2017-12-17T04:25:48.440Z,1.60
2017-12-17T04:28:16.535Z,1.70
2017-12-17T04:30:44.614Z,1.70
2017-12-17T04:33:14.585Z,1.60
2017-12-17T04:35:42.679Z,1.50
2017-12-17T04:38:10.783Z,1.50
2017-12-17T04:40:39.335Z,1.50
2017-12-17T04:43:07.419Z,1.40
2017-12-17T04:45:35.587Z,1.40
2017-12-17T04:48:03.676Z,1.50
2017-12-17T04:50:31.871Z,1.50
2017-12-17T04:52:59.976Z,1.50
2017-12-17T04:55:28.100Z,1.40
2017-12-17T04:57:56.354Z,1.50
2017-12-17T05:00:24.564Z,1.50
2017-12-17T05:02:52.650Z,1.50
2017-12-17T05:05:20.767Z,1.50
2017-12-17T05:07:48.924Z,1.50
2017-12-17T05:10:17.227Z,1.50
2017-12-17T05:12:45.316Z,1.50
2017-12-17T05:15:14.836Z,1.60
2017-12-17T05:17:43.026Z,1.60
2017-12-17T05:20:11.921Z,1.60
2017-12-17T05:22:40.807Z,1.50
2017-12-17T05:25:11.000Z,1.60
2017-12-17T05:27:39.198Z,1.50
2017-12-17T05:30:08.084Z,1.50
2017-12-17T05:32:36.961Z,1.50
2017-12-17T05:35:05.079Z,1.60
2017-12-17T05:37:33.169Z,1.60
2017-12-17T05:40:01.258Z,1.60
2017-12-17T05:42:29.486Z,1.60
2017-12-17T05:44:57.672Z,1.60
2017-12-17T05:47:25.805Z,1.50
2017-12-17T05:49:55.159Z,1.40
2017-12-17T05:52:23.307Z,1.50
2017-12-17T05:54:52.299Z,1.40
2017-12-17T06:00:11.573Z,1.50
2017-12-17T06:02:40.944Z,1.50
2017-12-17T06:05:09.051Z,1.60
2017-12-17T06:07:37.991Z,1.50
2017-12-17T06:10:06.086Z,1.50
2017-12-17T06:12:34.236Z,1.50
2017-12-17T06:15:02.319Z,1.50
2017-12-17T06:17:30.716Z,1.60
2017-12-17T06:19:59.025Z,1.50
2017-12-17T06:22:27.188Z,1.50
2017-12-17T06:24:56.044Z,1.50
2017-12-17T06:27:24.350Z,1.60
2017-12-17T06:29:52.544Z,1.60
2017-12-17T06:32:21.529Z,1.60
2017-12-17T06:34:50.392Z,1.60
2017-12-17T06:37:19.040Z,1.60
2017-12-17T06:39:49.676Z,1.60
2017-12-17T06:42:18.480Z,1.60
2017-12-17T06:44:48.720Z,1.60
2017-12-17T06:47:16.885Z,1.60
2017-12-17T06:49:44.969Z,1.60
2017-12-17T06:52:13.129Z,1.60
2017-12-17T06:54:41.239Z,1.60
2017-12-17T06:57:09.323Z,1.60
2017-12-17T06:59:37.550Z,1.70
2017-12-17T07:02:05.683Z,1.60
2017-12-17T07:04:33.838Z,1.50
2017-12-17T07:07:02.708Z,1.50
2017-12-17T07:09:30.833Z,1.50
2017-12-17T07:11:59.111Z,1.50
2017-12-17T07:14:30.527Z,1.50
2017-12-17T07:17:00.450Z,1.50
2017-12-17T07:19:28.616Z,1.50
2017-12-17T07:21:56.771Z,1.50
2017-12-17T07:24:24.983Z,1.50
2017-12-17T07:26:53.127Z,1.50
2017-12-17T07:29:21.305Z,1.50
2017-12-17T07:31:49.444Z,1.50
2017-12-17T07:34:17.656Z,1.60
2017-12-17T07:36:45.826Z,1.60
2017-12-17T07:39:14.948Z,1.50
2017-12-17T07:41:43.119Z,1.40
2017-12-17T07:44:12.220Z,1.30
2017-12-17T07:46:40.365Z,1.40
2017-12-17T07:49:09.210Z,1.40
2017-12-17T07:51:37.334Z,1.50
2017-12-17T07:54:06.362Z,1.50
2017-12-17T07:56:34.900Z,1.50
2017-12-17T07:59:03.128Z,1.50
2017-12-17T08:01:31.348Z,1.50
2017-12-17T08:04:00.343Z,1.40
2017-12-17T08:06:29.242Z,1.50
2017-12-17T08:08:58.121Z,1.50
2017-12-17T08:11:27.144Z,1.60
2017-12-17T08:13:55.286Z,1.60
2017-12-17T08:16:24.139Z,1.60
2017-12-17T08:18:52.349Z,1.60
2017-12-17T08:21:20.434Z,1.60
2017-12-17T08:23:49.331Z,1.50
2017-12-17T08:26:18.219Z,1.60
2017-12-17T08:28:47.098Z,1.60
2017-12-17T08:31:15.940Z,1.60
2017-12-17T08:33:44.540Z,1.60
2017-12-17T08:36:12.679Z,1.50
2017-12-17T08:38:40.771Z,1.40
2017-12-17T08:41:08.896Z,1.40
2017-12-17T08:43:37.012Z,1.50
2017-12-17T08:46:05.107Z,1.50
2017-12-17T08:48:33.222Z,1.50
2017-12-17T08:51:02.106Z,1.50
2017-12-17T08:53:30.228Z,1.50
2017-12-17T08:55:58.326Z,1.50
2017-12-17T08:58:26.491Z,1.40
2017-12-17T09:00:54.617Z,1.50
2017-12-17T09:03:25.372Z,1.50
2017-12-17T09:05:53.444Z,1.70
2017-12-17T09:08:22.343Z,1.70
2017-12-17T09:10:50.457Z,1.80
2017-12-17T09:13:18.535Z,1.90
2017-12-17T09:15:47.517Z,1.80
2017-12-17T09:18:15.708Z,1.70
2017-12-17T09:20:43.909Z,1.70
2017-12-17T09:23:16.897Z,1.70
2017-12-17T09:25:45.072Z,1.70
2017-12-17T09:28:13.196Z,1.70
2017-12-17T09:30:41.820Z,1.70
2017-12-17T09:33:10.772Z,1.80
2017-12-17T09:35:38.848Z,1.90
2017-12-17T09:38:06.984Z,1.80
2017-12-17T09:40:38.339Z,1.90
2017-12-17T09:43:07.099Z,1.80
2017-12-17T09:45:35.201Z,1.90
2017-12-17T09:48:03.341Z,1.90
2017-12-17T09:50:32.252Z,1.90
2017-12-17T09:53:00.600Z,1.90
2017-12-17T09:55:30.617Z,1.90
2017-12-17T09:57:59.061Z,1.90
2017-12-17T10:00:27.173Z,1.80
2017-12-17T10:02:55.304Z,1.80
2017-12-17T10:05:23.414Z,1.90
2017-12-17T10:07:52.335Z,2.00
2017-12-17T10:10:20.471Z,2.10
2017-12-17T10:12:49.372Z,2.00
2017-12-17T10:15:18.234Z,2.10
2017-12-17T10:17:47.013Z,2.20
2017-12-17T10:20:15.211Z,2.20
2017-12-17T10:22:43.286Z,2.20
2017-12-17T10:25:12.140Z,2.10
2017-12-17T10:27:40.351Z,2.00
2017-12-17T10:30:09.244Z,2.00
2017-12-17T10:32:37.522Z,2.00
2017-12-17T10:35:06.385Z,2.00
2017-12-17T10:37:34.610Z,2.00
2017-12-17T10:40:02.691Z,1.90
2017-12-17T10:42:30.823Z,1.90
2017-12-17T10:44:58.963Z,2.00
2017-12-17T10:47:27.056Z,1.90
2017-12-17T10:49:55.147Z,1.90
2017-12-17T10:52:23.321Z,2.00
2017-12-17T10:54:51.399Z,2.00
2017-12-17T10:57:19.712Z,2.10
2017-12-17T10:59:47.789Z,2.10
2017-12-17T11:02:16.344Z,2.10
2017-12-17T11:04:46.868Z,2.10
2017-12-17T11:07:17.267Z,2.00
2017-12-17T11:12:28.275Z,2.10
2017-12-17T11:14:56.439Z,2.10
2017-12-17T11:17:24.529Z,2.00
2017-12-17T11:19:53.796Z,2.10
2017-12-17T11:22:21.882Z,2.10
2017-12-17T11:24:49.986Z,2.20
2017-12-17T11:27:18.116Z,2.20
2017-12-17T11:29:46.280Z,2.10
2017-12-17T11:32:14.431Z,2.10
2017-12-17T11:34:42.674Z,2.10
2017-12-17T11:37:10.801Z,2.10
2017-12-17T11:39:39.000Z,2.00
2017-12-17T11:42:08.030Z,2.10
2017-12-17T11:44:36.165Z,2.10
2017-12-17T11:47:04.259Z,2.10
2017-12-17T11:49:33.261Z,2.10
2017-12-17T11:52:01.390Z,2.10
2017-12-17T11:54:29.827Z,2.20
2017-12-17T11:56:58.038Z,2.20
2017-12-17T11:59:26.104Z,2.10
2017-12-17T12:01:54.275Z,2.10
2017-12-17T12:04:22.368Z,2.00
2017-12-17T12:06:50.504Z,2.10
2017-12-17T12:09:18.633Z,2.00
2017-12-17T12:11:47.609Z,2.00
2017-12-17T12:14:15.776Z,2.00
2017-12-17T12:16:44.076Z,2.10
2017-12-17T12:19:12.963Z,2.10
2017-12-17T12:21:42.118Z,2.10
2017-12-17T12:24:10.864Z,2.10
2017-12-17T12:26:38.936Z,2.10
2017-12-17T12:29:07.153Z,2.10
2017-12-17T12:31:35.239Z,2.00
2017-12-17T12:34:03.329Z,2.00
2017-12-17T12:36:31.525Z,2.10
2017-12-17T12:39:00.395Z,2.20
2017-12-17T12:41:29.263Z,2.20
2017-12-17T12:43:57.343Z,2.20
2017-12-17T12:46:26.508Z,2.20
2017-12-17T12:48:54.780Z,2.20
2017-12-17T12:51:22.880Z,2.20
2017-12-17T12:53:50.996Z,2.20
2017-12-17T12:56:19.902Z,2.10
2017-12-17T12:58:48.020Z,2.10
2017-12-17T13:01:16.104Z,2.20
2017-12-17T13:03:44.308Z,2.30
2017-12-17T13:06:12.391Z,2.30
2017-12-17T13:08:41.577Z,2.20
2017-12-17T13:11:10.476Z,2.30
2017-12-17T13:13:39.383Z,2.30
2017-12-17T13:16:07.478Z,2.20
2017-12-17T13:18:35.653Z,2.20
2017-12-17T13:21:03.745Z,2.30
2017-12-17T13:23:31.887Z,2.30
2017-12-17T13:26:00.014Z,2.10
2017-12-17T13:28:28.998Z,2.00
2017-12-17T13:30:57.079Z,2.00
2017-12-17T13:33:25.169Z,1.90
2017-12-17T13:35:54.140Z,1.90
2017-12-17T13:38:22.228Z,1.90
2017-12-17T13:40:51.134Z,1.90
2017-12-17T13:43:20.523Z,1.90
2017-12-17T13:45:49.340Z,2.00
2017-12-17T13:48:17.587Z,2.00
2017-12-17T13:50:47.447Z,2.10
2017-12-17T13:53:15.536Z,2.10
2017-12-17T13:55:43.736Z,2.20
2017-12-17T13:58:11.845Z,2.20
2017-12-17T14:00:39.992Z,2.30
2017-12-17T14:03:08.841Z,2.30
2017-12-17T14:05:37.148Z,2.40
2017-12-17T14:08:05.231Z,2.40
2017-12-17T14:10:33.486Z,2.40
2017-12-17T14:13:01.924Z,2.40
2017-12-17T14:15:30.007Z,2.40
2017-12-17T14:17:58.139Z,2.50
2017-12-17T14:20:27.198Z,2.50
2017-12-17T14:22:55.423Z,2.50
2017-12-17T14:25:23.533Z,2.50
2017-12-17T14:27:51.652Z,2.50
2017-12-17T14:30:20.536Z,2.60
2017-12-17T14:32:48.644Z,2.60
2017-12-17T14:35:16.805Z,2.50
2017-12-17T14:37:44.945Z,2.50
2017-12-17T14:40:13.083Z,2.60
2017-12-17T14:42:41.204Z,2.60
2017-12-17T14:45:09.300Z,2.50
2017-12-17T14:47:37.516Z,2.60
2017-12-17T14:50:06.582Z,2.60
2017-12-17T14:52:35.141Z,2.70
2017-12-17T14:55:03.657Z,2.80
2017-12-17T14:57:32.788Z,2.80
2017-12-17T15:00:00.886Z,2.80
2017-12-17T15:02:29.867Z,2.70
2017-12-17T15:04:59.113Z,2.50
2017-12-17T15:07:27.351Z,2.50
2017-12-17T15:09:56.225Z,2.50
2017-12-17T15:12:24.960Z,2.50
2017-12-17T15:14:53.296Z,2.50
2017-12-17T15:17:21.384Z,2.40
2017-12-17T15:19:49.491Z,2.50
2017-12-17T15:22:17.636Z,2.50
2017-12-17T15:24:46.515Z,2.50
2017-12-17T15:27:14.649Z,2.50
2017-12-17T15:29:42.760Z,2.50
2017-12-17T15:32:12.640Z,2.50
2017-12-17T15:34:40.891Z,2.50
2017-12-17T15:37:19.110Z,2.50
2017-12-17T15:42:23.598Z,2.50
2017-12-17T15:44:52.526Z,2.60
2017-12-17T15:47:20.639Z,2.60
2017-12-17T15:49:48.745Z,2.60
2017-12-17T15:52:18.523Z,2.60
2017-12-17T15:54:46.609Z,2.70
2017-12-17T15:57:15.714Z,2.80
2017-12-17T15:59:43.805Z,2.80
2017-12-17T16:02:12.926Z,2.80
2017-12-17T16:04:41.028Z,2.80
2017-12-17T16:10:01.620Z,2.80
2017-12-17T16:17:46.224Z,2.80
2017-12-17T16:20:14.361Z,2.90
2017-12-17T16:22:43.366Z,2.90
2017-12-17T16:25:13.120Z,2.90
2017-12-17T16:27:41.302Z,2.90
2017-12-17T16:30:09.475Z,2.90
2017-12-17T16:32:37.668Z,2.90
2017-12-17T16:35:06.580Z,2.90
2017-12-17T16:37:34.712Z,2.90
2017-12-17T16:40:02.912Z,2.90
2017-12-17T16:42:31.896Z,2.90
2017-12-17T16:45:00.063Z,2.80
2017-12-17T16:47:28.224Z,2.90
2017-12-17T16:49:56.352Z,2.90
2017-12-17T16:52:24.487Z,2.90
2017-12-17T16:54:53.460Z,2.90
2017-12-17T16:57:21.639Z,2.90
2017-12-17T16:59:49.789Z,2.90
2017-12-17T17:02:17.906Z,2.90
2017-12-17T17:04:46.841Z,2.90
2017-12-17T17:07:14.934Z,2.90
2017-12-17T17:09:44.014Z,2.90
2017-12-17T17:12:12.105Z,2.90
2017-12-17T17:14:40.252Z,2.90
2017-12-17T17:17:08.357Z,2.90
2017-12-17T17:19:36.422Z,2.90
2017-12-17T17:22:04.674Z,2.90
2017-12-17T17:24:32.840Z,2.90
2017-12-17T17:27:00.949Z,2.90
2017-12-17T17:29:29.104Z,2.90
2017-12-17T17:31:57.215Z,2.90
2017-12-17T17:34:25.396Z,2.80
2017-12-17T17:36:54.305Z,2.80
2017-12-17T17:39:22.384Z,2.80
2017-12-17T17:41:50.747Z,2.90
2017-12-17T17:44:19.683Z,2.80
2017-12-17T17:46:47.799Z,2.90
2017-12-17T17:49:16.676Z,2.90
2017-12-17T17:51:44.808Z,2.90
2017-12-17T17:54:12.988Z,2.90
2017-12-17T17:56:41.144Z,2.80
2017-12-17T17:59:09.256Z,2.90
2017-12-17T18:01:37.445Z,2.90
2017-12-17T18:04:05.634Z,2.90
2017-12-17T18:06:33.768Z,2.80
2017-12-17T18:09:01.919Z,2.90
2017-12-17T18:11:30.099Z,2.90
2017-12-17T18:13:58.320Z,2.90
2017-12-17T18:16:26.460Z,3.00
2017-12-17T18:18:54.580Z,2.90
2017-12-17T18:21:23.442Z,2.90
2017-12-17T18:23:51.553Z,2.90
2017-12-17T18:26:20.495Z,2.90
2017-12-17T18:28:48.624Z,2.90
2017-12-17T18:31:16.761Z,3.00
2017-12-17T18:33:44.943Z,3.00
2017-12-17T18:36:13.025Z,3.00
2017-12-17T18:38:41.924Z,2.90
2017-12-17T18:41:10.140Z,2.90
2017-12-17T18:43:38.215Z,2.90
2017-12-17T18:46:06.392Z,2.90
2017-12-17T18:48:34.481Z,2.90
2017-12-17T18:51:02.640Z,2.90
2017-12-17T18:53:30.815Z,3.00
2017-12-17T18:55:58.967Z,2.90
2017-12-17T18:58:27.052Z,2.90
2017-12-17T19:00:55.273Z,2.90
2017-12-17T19:03:24.161Z,2.90
2017-12-17T19:05:52.449Z,2.90
2017-12-17T19:08:21.378Z,2.90
2017-12-17T19:10:50.179Z,2.90
2017-12-17T19:13:18.332Z,2.90
2017-12-17T19:15:46.627Z,2.90
2017-12-17T19:18:14.711Z,2.90
2017-12-17T19:20:42.869Z,2.90
2017-12-17T19:23:11.095Z,2.80
2017-12-17T19:25:39.183Z,2.70
2017-12-17T19:28:09.080Z,2.80
2017-12-17T19:30:37.255Z,2.80
2017-12-17T19:33:05.427Z,2.80
2017-12-17T19:35:33.568Z,2.80
2017-12-17T19:38:01.930Z,2.80
2017-12-17T19:40:30.028Z,2.70
2017-12-17T19:42:58.154Z,2.70
2017-12-17T19:45:26.246Z,2.80
2017-12-17T19:47:55.663Z,2.70
2017-12-17T19:50:23.746Z,2.80
2017-12-17T19:52:51.902Z,2.70
2017-12-17T19:55:20.028Z,2.80
2017-12-17T19:57:48.958Z,2.80
2017-12-17T20:00:17.064Z,2.80
2017-12-17T20:02:45.210Z,2.80
2017-12-17T20:05:13.358Z,2.80
2017-12-17T20:07:41.498Z,2.80
2017-12-17T20:10:09.632Z,2.80
2017-12-17T20:12:37.756Z,2.80
2017-12-17T20:15:05.898Z,2.80
2017-12-17T20:17:34.047Z,2.80
2017-12-17T20:20:02.145Z,2.80
2017-12-17T20:22:30.342Z,2.80
2017-12-17T20:24:58.512Z,2.80
2017-12-17T20:27:27.523Z,2.80
2017-12-17T20:29:56.891Z,2.80
2017-12-17T20:32:25.040Z,2.80
2017-12-17T20:34:53.149Z,2.80
2017-12-17T20:37:21.292Z,2.80
2017-12-17T20:39:49.418Z,2.80
2017-12-17T20:42:18.307Z,2.80
2017-12-17T20:44:46.424Z,2.80
2017-12-17T20:47:14.552Z,2.80
2017-12-17T20:49:43.452Z,2.80
2017-12-17T20:52:12.541Z,2.80
2017-12-17T20:54:40.778Z,2.80
2017-12-17T20:57:09.018Z,2.80
2017-12-17T20:59:37.157Z,2.80
2017-12-17T21:02:06.013Z,2.80
2017-12-17T21:04:34.159Z,2.80
2017-12-17T21:07:02.262Z,2.80
2017-12-17T21:09:31.288Z,2.80
2017-12-17T21:12:00.301Z,2.90
2017-12-17T21:14:28.420Z,2.80
2017-12-17T21:16:56.673Z,2.80
2017-12-17T21:19:24.777Z,2.90
2017-12-17T21:21:52.985Z,2.80
2017-12-17T21:24:22.475Z,2.80
2017-12-17T21:26:50.766Z,2.70
2017-12-17T21:29:18.842Z,2.70
2017-12-17T21:31:47.781Z,2.80
2017-12-17T21:34:15.936Z,2.80
2017-12-17T21:36:44.031Z,2.80
2017-12-17T21:39:12.158Z,2.80
2017-12-17T21:41:41.030Z,2.70
2017-12-17T21:44:10.616Z,2.80
2017-12-17T21:46:38.815Z,2.70
2017-12-17T21:49:06.978Z,2.80
2017-12-17T21:51:35.051Z,2.80
2017-12-17T21:54:03.151Z,2.80
2017-12-17T21:56:32.047Z,2.80
2017-12-17T21:59:00.134Z,2.90
2017-12-17T22:01:28.215Z,2.90
2017-12-17T22:03:57.480Z,2.80
2017-12-17T22:06:26.337Z,2.90
2017-12-17T22:08:54.520Z,2.80
2017-12-17T22:11:22.600Z,2.80
2017-12-17T22:13:50.783Z,2.80
2017-12-17T22:16:19.627Z,2.90
2017-12-17T22:18:47.765Z,2.90
2017-12-17T22:21:15.877Z,2.90
2017-12-17T22:23:43.974Z,2.90
2017-12-17T22:26:12.095Z,2.90
2017-12-17T22:28:40.232Z,2.90
2017-12-17T22:31:08.396Z,2.80
2017-12-17T22:33:36.514Z,2.80
2017-12-17T22:36:04.716Z,2.80
2017-12-17T22:38:32.822Z,2.80
2017-12-17T22:41:01.766Z,2.80
2017-12-17T22:43:29.857Z,2.70
2017-12-17T22:45:57.979Z,2.70
2017-12-17T22:48:26.955Z,2.80
2017-12-17T22:50:55.808Z,2.70
2017-12-17T22:53:23.887Z,2.60
2017-12-17T22:55:52.172Z,2.50
2017-12-17T22:58:20.339Z,2.50
2017-12-17T23:00:48.477Z,2.40
2017-12-17T23:03:16.628Z,2.30
2017-12-17T23:05:45.621Z,2.30
2017-12-17T23:08:13.695Z,2.20
2017-12-17T23:10:41.850Z,2.20
2017-12-17T23:13:10.026Z,2.20
2017-12-17T23:15:38.136Z,2.10
2017-12-17T23:18:06.247Z,2.10
2017-12-17T23:20:34.391Z,2.10
2017-12-17T23:23:02.504Z,2.00
2017-12-17T23:25:30.568Z,2.00
2017-12-17T23:27:58.710Z,1.90
2017-12-17T23:30:26.853Z,1.90
2017-12-17T23:32:55.770Z,1.80
2017-12-17T23:35:23.950Z,1.80
2017-12-17T23:37:52.075Z,1.80
2017-12-17T23:40:20.239Z,1.80
2017-12-17T23:42:48.320Z,1.70
2017-12-17T23:45:17.250Z,1.70
2017-12-17T23:47:45.371Z,1.60
2017-12-17T23:50:13.760Z,1.60
2017-12-17T23:52:41.865Z,1.50
2017-12-17T23:55:10.094Z,1.40
2017-12-17T23:57:38.279Z,1.40
